Time;durP1;ratioP1;P1;durP2;ratioP2;P2;SDS_P1;SDS_P2;PMS_P1;PMS_P2;Temp;Humidity;BMP_temperature;BMP_pressure;BME280_temperature;BME280_humidity;BME280_pressure;Samples;Min_cycle;Max_cycle;Signal;HPM_P1;HPM_P2
2022/02/28 00:01:15;;;;;;;24.17;14.20;;;6.70;98.30;;;;;;6243974;23;20000;-80
2022/02/28 00:03:50;;;;;;;31.65;16.27;;;6.70;98.20;;;;;;6246589;23;20008;-81
2022/02/28 00:06:19;;;;;;;25.30;14.30;;;6.60;98.10;;;;;;6246385;23;20000;-80
2022/02/28 00:08:46;;;;;;;26.00;14.02;;;6.60;98.30;;;;;;6246354;22;20430;-81
2022/02/28 00:11:12;;;;;;;24.58;13.70;;;6.60;98.40;;;;;;6246915;23;20429;-79
2022/02/28 00:13:38;;;;;;;25.15;13.65;;;6.60;98.40;;;;;;6244440;23;20008;-80
2022/02/28 00:16:26;;;;;;;26.15;13.95;;;6.60;98.30;;;;;;6245886;23;20007;-84
2022/02/28 00:18:52;;;;;;;25.75;12.77;;;6.60;98.40;;;;;;6245796;22;20010;-84
2022/02/28 00:21:18;;;;;;;27.70;14.05;;;6.50;98.50;;;;;;6245743;23;19996;-81
2022/02/28 00:23:50;;;;;;;24.58;14.35;;;6.50;98.50;;;;;;6246578;22;20011;-85
2022/02/28 00:26:31;;;;;;;20.90;12.90;;;6.60;98.40;;;;;;6245267;23;20504;-79
2022/02/28 00:28:57;;;;;;;29.87;14.83;;;6.50;98.40;;;;;;6246473;22;20421;-81
2022/02/28 00:31:23;;;;;;;23.85;13.43;;;6.60;98.50;;;;;;6246511;22;20008;-80
2022/02/28 00:33:49;;;;;;;21.52;12.63;;;6.50;98.50;;;;;;6245912;22;20016;-79
2022/02/28 00:36:15;;;;;;;24.98;13.65;;;6.50;98.50;;;;;;6245665;22;20042;-80
2022/02/28 00:38:41;;;;;;;28.35;13.90;;;6.50;98.30;;;;;;6246325;22;20000;-79
2022/02/28 00:41:07;;;;;;;25.35;14.00;;;6.60;98.60;;;;;;6244767;23;20000;-80
2022/02/28 00:43:34;;;;;;;29.30;14.25;;;6.60;98.40;;;;;;6246311;22;20392;-81
2022/02/28 00:46:01;;;;;;;24.13;13.25;;;6.50;98.40;;;;;;6246135;22;19996;-81
2022/02/28 00:48:27;;;;;;;27.15;15.13;;;6.50;98.40;;;;;;6246237;22;20000;-81
2022/02/28 00:50:53;;;;;;;25.35;13.88;;;6.50;98.40;;;;;;6245989;23;20138;-83
2022/02/28 00:53:24;;;;;;;27.15;13.38;;;6.50;98.40;;;;;;6246222;22;20000;-82
2022/02/28 00:55:52;;;;;;;23.50;13.23;;;6.50;98.40;;;;;;6246062;22;20075;-81
2022/02/28 00:58:39;;;;;;;26.00;13.73;;;6.50;98.40;;;;;;6244175;22;20700;-84
2022/02/28 01:01:08;;;;;;;27.67;14.40;;;6.50;98.40;;;;;;6246047;23;20425;-84
2022/02/28 01:03:34;;;;;;;25.10;14.88;;;6.50;98.70;;;;;;6244290;23;20005;-80
2022/02/28 01:06:05;;;;;;;24.00;13.85;;;6.50;98.50;;;;;;6245972;23;20004;-83
2022/02/28 01:08:31;;;;;;;27.08;13.52;;;6.50;98.40;;;;;;6246134;22;19996;-80
2022/02/28 01:10:59;;;;;;;27.20;13.65;;;6.40;98.50;;;;;;6244351;23;20008;-82
2022/02/28 01:13:38;;;;;;;27.00;15.18;;;6.40;98.50;;;;;;6245932;22;20004;-81
2022/02/28 01:16:10;;;;;;;29.13;14.63;;;6.40;98.60;;;;;;6245976;23;20006;-80
2022/02/28 01:18:39;;;;;;;25.38;14.15;;;6.40;98.40;;;;;;6245496;22;20000;-86
2022/02/28 01:21:05;;;;;;;26.63;13.10;;;6.40;98.40;;;;;;6246089;22;20004;-83
2022/02/28 01:23:38;;;;;;;25.73;14.10;;;6.40;98.50;;;;;;6245882;22;20080;-85
2022/02/28 01:26:17;;;;;;;30.35;15.60;;;6.40;98.50;;;;;;6245713;23;20008;-81
2022/02/28 01:28:57;;;;;;;28.35;13.63;;;6.40;98.50;;;;;;6245442;22;20027;-85
2022/02/28 01:31:26;;;;;;;31.10;14.18;;;6.40;98.50;;;;;;6244814;23;20095;-80
2022/02/28 01:34:00;;;;;;;25.63;14.05;;;6.40;98.40;;;;;;6245813;22;20052;-82
2022/02/28 01:36:26;;;;;;;29.33;13.73;;;6.40;98.30;;;;;;6246837;22;19997;-80
2022/02/28 01:39:44;;;;;;;;;;;;;;;;;;;;;
2022/02/28 01:45:26;;;;;;;25.83;14.82;;;6.40;98.40;;;;;;6210246;22;20476;-81
2022/02/28 01:48:03;;;;;;;28.35;13.65;;;6.40;98.40;;;;;;6241671;22;20000;-82
2022/02/28 01:50:53;;;;;;;31.35;14.75;;;6.30;98.40;;;;;;6245450;22;20031;-82
2022/02/28 01:53:32;;;;;;;24.83;13.95;;;6.40;98.70;;;;;;6245363;22;20008;-79
2022/02/28 01:56:38;;;;;;;27.02;14.77;;;6.30;98.20;;;;;;6245225;23;20026;-81
2022/02/28 02:00:01;;;;;;;;;;;;;;;;;;;;;
2022/02/28 02:02:32;;;;;;;24.15;13.55;;;6.30;98.30;;;;;;6149511;23;20010;-81
2022/02/28 02:05:40;;;;;;;27.10;15.13;;;6.30;98.10;;;;;;6245718;22;20000;-82
2022/02/28 02:08:26;;;;;;;26.67;14.02;;;6.30;98.10;;;;;;6242932;22;20009;-85
2022/02/28 02:10:54;;;;;;;26.85;13.25;;;6.30;98.00;;;;;;6245544;22;20004;-84
2022/02/28 02:13:33;;;;;;;23.30;13.60;;;6.30;98.00;;;;;;6245020;22;20010;-82
2022/02/28 02:18:35;;;;;;;26.33;14.68;;;6.40;98.10;;;;;;6288080;22;20020;-80
2022/02/28 02:21:31;;;;;;;;;;;;;;;;;;;;;
2022/02/28 02:23:58;;;;;;;24.38;13.80;;;6.30;98.00;;;;;;6275228;22;20495;-78
2022/02/28 02:27:32;;;;;;;;;;;;;;;;;;;;;
2022/02/28 02:30:23;;;;;;;;;;;;;;;;;;;;;
2022/02/28 02:33:05;;;;;;;25.20;13.25;;;6.20;98.20;;;;;;6275601;22;20094;-80
2022/02/28 02:35:36;;;;;;;27.50;12.83;;;6.20;98.40;;;;;;6276020;22;20000;-81
2022/02/28 02:38:14;;;;;;;21.08;13.25;;;6.20;98.40;;;;;;6248341;22;20042;-81
2022/02/28 02:40:58;;;;;;;26.20;13.93;;;6.20;98.40;;;;;;6275317;22;19996;-80
2022/02/28 02:43:34;;;;;;;23.90;13.32;;;6.10;98.30;;;;;;6248321;22;19999;-81
2022/02/28 02:46:01;;;;;;;24.00;13.30;;;6.10;98.30;;;;;;6275504;22;20413;-80
2022/02/28 02:48:30;;;;;;;24.95;13.55;;;6.10;98.10;;;;;;6276380;22;20027;-81
2022/02/28 02:50:57;;;;;;;27.90;14.70;;;6.20;98.10;;;;;;6275771;22;20063;-82
2022/02/28 02:53:36;;;;;;;27.98;14.00;;;6.20;98.20;;;;;;6275790;22;20011;-84
2022/02/28 02:56:03;;;;;;;31.33;14.70;;;6.20;98.20;;;;;;6276108;22;20413;-78
2022/02/28 02:58:34;;;;;;;25.42;14.10;;;6.20;98.00;;;;;;6275904;22;20034;-80
2022/02/28 03:01:33;;;;;;;25.20;13.52;;;6.20;98.00;;;;;;6277940;22;20010;-79
2022/02/28 03:04:00;;;;;;;25.48;14.38;;;6.20;97.90;;;;;;6210458;22;20004;-80
2022/02/28 03:06:27;;;;;;;25.58;14.70;;;6.20;97.90;;;;;;6277864;22;19999;-80
2022/02/28 03:08:59;;;;;;;25.23;13.55;;;6.20;97.70;;;;;;6277664;22;20000;-83
2022/02/28 03:11:46;;;;;;;28.08;14.85;;;6.20;97.80;;;;;;6277519;22;20003;-79
2022/02/28 03:14:23;;;;;;;28.40;14.02;;;6.20;97.80;;;;;;6277596;22;20008;-83
2022/02/28 03:16:49;;;;;;;23.88;14.45;;;6.20;97.90;;;;;;6277503;22;20011;-80
2022/02/28 03:19:40;;;;;;;32.00;14.80;;;6.20;97.90;;;;;;6277700;22;20000;-82
2022/02/28 03:22:30;;;;;;;24.13;13.18;;;6.20;97.70;;;;;;6250204;22;20541;-81
2022/02/28 03:25:21;;;;;;;26.05;14.82;;;6.20;98.00;;;;;;6276935;22;20035;-82
2022/02/28 03:27:47;;;;;;;;;;;6.20;97.70;;;;;;6219703;22;20081;-82
2022/02/28 03:30:14;;;;;;;23.30;13.95;;;6.20;97.50;;;;;;6250231;22;19942;-81
2022/02/28 03:32:40;;;;;;;27.40;14.02;;;6.30;97.30;;;;;;6277510;22;20011;-80
2022/02/28 03:35:14;;;;;;;25.08;14.15;;;6.30;97.10;;;;;;6277639;22;20003;-80
2022/02/28 03:37:59;;;;;;;29.02;14.68;;;6.30;97.20;;;;;;6249986;22;20431;-82
2022/02/28 03:40:51;;;;;;;29.60;14.75;;;6.40;97.10;;;;;;6276961;22;20440;-80
2022/02/28 03:43:17;;;;;;;30.13;14.95;;;6.40;96.90;;;;;;6276207;22;20095;-79
2022/02/28 03:45:50;;;;;;;28.50;14.07;;;6.40;97.00;;;;;;6249409;22;20003;-80
2022/02/28 03:48:24;;;;;;;23.48;14.40;;;6.30;97.00;;;;;;6277230;22;19996;-79
2022/02/28 03:51:04;;;;;;;27.20;14.30;;;6.30;97.10;;;;;;6277549;22;20484;-82
2022/02/28 03:53:31;;;;;;;25.92;13.88;;;6.30;97.00;;;;;;6277225;22;20008;-83
2022/02/28 03:56:06;;;;;;;25.65;14.43;;;6.30;96.90;;;;;;6277005;22;19999;-79
2022/02/28 03:58:41;;;;;;;29.92;16.02;;;6.30;97.00;;;;;;6276516;22;20417;-81
2022/02/28 04:01:07;;;;;;;27.23;13.95;;;6.30;97.00;;;;;;6250317;22;20011;-81
2022/02/28 04:03:41;;;;;;;31.50;17.55;;;6.30;97.10;;;;;;6277195;22;20356;-80
2022/02/28 04:06:46;;;;;;;29.20;14.50;;;6.20;97.20;;;;;;6277447;22;20519;-80
2022/02/28 04:09:18;;;;;;;27.88;15.00;;;6.20;97.10;;;;;;6250626;22;20004;-80
2022/02/28 04:11:46;;;;;;;25.23;14.02;;;6.20;97.20;;;;;;6276194;22;19999;-81
2022/02/28 04:14:18;;;;;;;29.42;15.75;;;6.20;97.20;;;;;;6277990;22;20451;-80
2022/02/28 04:16:44;;;;;;;;;;;6.20;97.20;;;;;;6269378;22;20023;-80
2022/02/28 04:19:21;;;;;;;28.17;14.73;;;6.10;97.20;;;;;;6219357;23;19899;-82
2022/02/28 04:21:47;;;;;;;29.92;15.75;;;6.10;97.20;;;;;;6246534;23;20001;-84
2022/02/28 04:24:16;;;;;;;30.63;16.23;;;6.10;97.20;;;;;;6245940;23;20011;-79
2022/02/28 04:26:45;;;;;;;30.58;16.33;;;6.10;96.90;;;;;;6246268;23;19996;-82
2022/02/28 04:29:17;;;;;;;30.45;16.30;;;6.10;96.90;;;;;;6246398;23;20035;-82
2022/02/28 04:31:46;;;;;;;29.38;15.75;;;6.10;97.00;;;;;;6246283;23;20012;-79
2022/02/28 04:54:53;;;;;;;;;;;;;;;;;;;;;
2022/02/28 05:09:52;;;;;;;26.80;14.82;;;5.90;96.80;;;;;;6272952;22;20078;-84
2022/02/28 05:12:21;;;;;;;28.33;14.52;;;5.90;96.90;;;;;;6275849;22;20144;-80
2022/02/28 05:14:50;;;;;;;27.20;14.85;;;5.90;97.00;;;;;;6277083;22;20065;-82
2022/02/28 05:17:25;;;;;;;25.98;14.68;;;5.90;97.10;;;;;;6273218;22;20073;-81
2022/02/28 05:19:51;;;;;;;28.95;15.65;;;5.90;97.20;;;;;;6245801;23;20064;-82
2022/02/28 05:22:21;;;;;;;30.67;15.35;;;5.80;97.40;;;;;;6245986;22;20067;-82
2022/02/28 05:24:50;;;;;;;28.60;15.25;;;5.80;97.60;;;;;;6254245;22;20101;-80
2022/02/28 05:27:19;;;;;;;28.63;14.80;;;5.70;97.60;;;;;;6278460;22;20007;-80
2022/02/28 05:29:47;;;;;;;30.25;15.50;;;5.70;97.70;;;;;;6276332;22;20027;-80
2022/02/28 05:32:14;;;;;;;25.73;14.63;;;5.70;97.80;;;;;;6276540;22;20011;-84
2022/02/28 05:34:42;;;;;;;27.25;14.50;;;5.70;97.80;;;;;;6276292;22;20022;-80
2022/02/28 05:37:28;;;;;;;31.63;15.25;;;5.70;97.70;;;;;;6276180;22;20013;-81
2022/02/28 05:39:54;;;;;;;28.60;15.05;;;5.70;97.80;;;;;;6275342;22;20027;-85
2022/02/28 05:42:20;;;;;;;28.90;16.45;;;5.70;97.90;;;;;;6275640;22;19999;-81
2022/02/28 05:44:46;;;;;;;29.73;15.00;;;5.60;97.90;;;;;;6275880;22;20077;-80
2022/02/28 05:47:12;;;;;;;30.38;14.70;;;5.60;97.80;;;;;;6276307;22;20070;-79
2022/02/28 05:49:41;;;;;;;28.30;15.52;;;5.70;97.70;;;;;;6276102;22;20000;-80
2022/02/28 05:52:09;;;;;;;33.10;15.60;;;5.70;97.90;;;;;;6275621;22;20011;-80
2022/02/28 05:54:37;;;;;;;29.00;15.82;;;5.70;97.70;;;;;;6276080;22;20003;-79
2022/02/28 05:57:09;;;;;;;31.42;17.65;;;5.70;97.90;;;;;;6275041;22;20046;-79
2022/02/28 05:59:44;;;;;;;;;;;5.70;98.00;;;;;;6276343;22;20022;-79
2022/02/28 06:02:12;;;;;;;28.63;15.57;;;5.60;98.20;;;;;;6248482;22;19949;-81
2022/02/28 06:04:50;;;;;;;32.72;16.25;;;5.60;98.30;;;;;;6276552;22;19996;-80
2022/02/28 06:07:16;;;;;;;29.40;16.25;;;5.60;98.40;;;;;;6276579;22;20003;-80
2022/02/28 06:09:45;;;;;;;30.30;15.95;;;5.60;98.40;;;;;;6276323;22;20000;-79
2022/02/28 06:12:14;;;;;;;30.02;16.25;;;5.60;98.50;;;;;;6275975;22;20016;-80
2022/02/28 06:15:04;;;;;;;29.70;15.05;;;5.80;98.30;;;;;;6276147;22;20000;-81
2022/02/28 06:17:32;;;;;;;30.88;15.63;;;6.20;97.60;;;;;;6248708;22;20014;-80
2022/02/28 06:19:58;;;;;;;28.80;16.23;;;6.50;97.10;;;;;;6275922;22;20003;-80
2022/02/28 06:22:28;;;;;;;30.98;15.48;;;6.80;96.70;;;;;;6248960;22;20090;-77
2022/02/28 06:24:54;;;;;;;32.53;16.30;;;7.10;96.40;;;;;;6268688;22;20039;-78
2022/02/28 06:27:40;;;;;;;30.63;15.73;;;7.40;96.10;;;;;;6244824;23;20074;-78
2022/02/28 06:30:11;;;;;;;26.90;15.75;;;7.80;95.70;;;;;;6244313;23;20083;-79
2022/02/28 06:33:02;;;;;;;31.55;14.93;;;8.20;95.20;;;;;;6244799;23;20084;-79
2022/02/28 06:35:29;;;;;;;21.67;13.83;;;8.70;94.80;;;;;;6175809;23;20011;-78
2022/02/28 06:37:58;;;;;;;25.55;15.50;;;9.00;94.20;;;;;;6246808;23;20027;-81
2022/02/28 06:40:24;;;;;;;27.48;14.43;;;9.20;93.90;;;;;;6247163;23;20034;-82
2022/02/28 06:42:50;;;;;;;24.27;14.20;;;9.40;93.60;;;;;;6246863;23;20004;-82
2022/02/28 06:45:17;;;;;;;32.95;15.82;;;9.60;93.60;;;;;;6247279;23;20008;-79
2022/02/28 06:47:43;;;;;;;28.02;15.20;;;10.10;92.90;;;;;;6247460;23;20000;-80
2022/02/28 06:50:10;;;;;;;33.92;15.77;;;10.70;92.30;;;;;;6246684;23;20007;-81
2022/02/28 06:52:41;;;;;;;34.85;18.85;;;11.00;91.80;;;;;;6247062;23;20016;-80
2022/02/28 06:55:13;;;;;;;22.25;12.73;;;11.30;91.70;;;;;;6246088;23;20076;-85
2022/02/28 06:57:45;;;;;;;24.13;13.73;;;12.00;90.80;;;;;;6245992;23;20004;-83
2022/02/28 07:00:14;;;;;;;;;;;12.50;90.10;;;;;;6247920;23;19996;-80
2022/02/28 07:02:51;;;;;;;22.25;12.88;;;12.90;89.50;;;;;;6246441;23;19900;-84
2022/02/28 07:05:25;;;;;;;22.10;13.02;;;13.60;87.10;;;;;;6220604;23;20004;-78
2022/02/28 07:07:51;;;;;;;21.48;13.25;;;13.80;86.10;;;;;;6220303;23;20015;-83
2022/02/28 07:10:24;;;;;;;22.83;14.60;;;13.20;85.50;;;;;;6245875;23;20425;-78
2022/02/28 07:13:10;;;;;;;23.23;13.05;;;13.00;85.90;;;;;;6219891;23;20019;-80
2022/02/28 07:15:36;;;;;;;22.50;13.50;;;12.70;86.10;;;;;;6246617;23;20004;-79
2022/02/28 07:18:02;;;;;;;24.63;13.60;;;12.90;86.20;;;;;;6246779;23;20042;-80
2022/02/28 07:20:28;;;;;;;30.80;13.20;;;13.10;84.90;;;;;;6246692;23;20000;-80
2022/02/28 07:22:58;;;;;;;21.17;12.70;;;13.20;84.70;;;;;;6246804;23;20028;-81
2022/02/28 07:25:28;;;;;;;26.58;13.20;;;12.90;85.70;;;;;;6256431;22;20015;-80
2022/02/28 07:27:58;;;;;;;24.05;13.20;;;13.30;85.40;;;;;;6277871;22;20341;-80
2022/02/28 07:30:26;;;;;;;25.52;13.00;;;13.30;83.80;;;;;;6277417;22;20071;-80
2022/02/28 07:32:56;;;;;;;20.92;12.15;;;13.70;83.90;;;;;;6277064;22;20090;-81
2022/02/28 07:35:22;;;;;;;25.85;13.23;;;13.60;83.20;;;;;;6250489;22;20007;-82
2022/02/28 07:41:02;;;;;;;21.27;13.23;;;13.20;83.70;;;;;;6277170;22;20378;-82
2022/02/28 07:43:30;;;;;;;26.95;15.27;;;13.50;83.20;;;;;;6249851;22;19999;-82
2022/02/28 07:45:56;;;;;;;21.95;13.00;;;14.00;82.30;;;;;;6277656;22;20004;-82
2022/02/28 07:48:22;;;;;;;23.75;13.88;;;14.30;81.40;;;;;;6250279;22;20000;-82
2022/02/28 07:50:48;;;;;;;23.20;13.75;;;14.20;81.20;;;;;;6251038;22;20007;-81
2022/02/28 07:53:16;;;;;;;27.05;15.45;;;14.30;81.00;;;;;;6277692;22;20011;-80
2022/02/28 07:55:42;;;;;;;23.23;14.30;;;14.80;80.50;;;;;;6276657;22;20003;-79
2022/02/28 07:58:12;;;;;;;21.60;13.88;;;15.70;78.50;;;;;;6276876;22;20000;-77
